Time;durP1;ratioP1;P1;durP2;ratioP2;P2;SDS_P1;SDS_P2;PMS_P1;PMS_P2;Temp;Humidity;BMP_temperature;BMP_pressure;BME280_temperature;BME280_humidity;BME280_pressure;Samples;Min_cycle;Max_cycle;Signal;HPM_P1;HPM_P2
2022/04/08 00:01:53;;;;;;;6.78;0.82;;;4.40;83.00;;;;;;5032410;28;20071;-71
2022/04/08 00:04:19;;;;;;;6.30;0.37;;;4.40;83.10;;;;;;5054211;28;20083;-71
2022/04/08 00:06:45;;;;;;;6.80;0.80;;;4.30;83.10;;;;;;5043374;28;20528;-71
2022/04/08 00:09:10;;;;;;;6.73;0.97;;;4.30;82.90;;;;;;5061961;28;20447;-71
2022/04/08 00:11:36;;;;;;;3.77;0.40;;;4.20;83.30;;;;;;5056411;28;20051;-71
2022/04/08 00:14:02;;;;;;;16.27;1.10;;;4.10;83.50;;;;;;5064835;28;20404;-71
2022/04/08 00:16:28;;;;;;;10.47;1.10;;;4.10;83.70;;;;;;5047870;28;20105;-71
2022/04/08 00:18:54;;;;;;;4.77;0.50;;;4.00;83.40;;;;;;5028698;28;20144;-71
2022/04/08 00:21:19;;;;;;;9.68;1.40;;;3.90;83.80;;;;;;5041915;28;20043;-71
2022/04/08 00:23:45;;;;;;;11.47;1.17;;;3.90;84.20;;;;;;5031656;28;20044;-71
2022/04/08 00:26:11;;;;;;;7.87;1.00;;;3.90;84.00;;;;;;5035744;28;20044;-71
2022/04/08 00:28:37;;;;;;;8.88;1.00;;;3.90;83.80;;;;;;5057531;28;20102;-71
2022/04/08 00:31:04;;;;;;;10.90;0.85;;;3.80;84.00;;;;;;5048028;28;20085;-71
2022/04/08 00:33:33;;;;;;;7.65;0.80;;;3.80;84.10;;;;;;5031195;28;20102;-71
2022/04/08 00:35:59;;;;;;;10.02;0.93;;;3.70;84.10;;;;;;5038302;28;20109;-71
2022/04/08 00:38:24;;;;;;;10.47;1.13;;;3.70;84.60;;;;;;5042823;28;20032;-71
2022/04/08 00:40:50;;;;;;;4.70;0.90;;;3.50;84.20;;;;;;5044361;28;20294;-71
2022/04/08 00:43:18;;;;;;;12.73;0.93;;;3.50;84.10;;;;;;5057122;28;20040;-71
2022/04/08 00:45:45;;;;;;;10.80;0.73;;;3.40;84.00;;;;;;5067955;28;20048;-71
2022/04/08 00:48:11;;;;;;;8.40;0.98;;;3.40;84.20;;;;;;5070186;28;20040;-71
2022/04/08 00:50:43;;;;;;;11.37;1.07;;;3.40;84.30;;;;;;5051275;28;20471;-71
2022/04/08 00:53:09;;;;;;;12.13;1.52;;;3.40;84.30;;;;;;5040242;28;20511;-71
2022/04/08 00:55:36;;;;;;;10.13;1.57;;;3.40;83.90;;;;;;5052609;28;20041;-71
2022/04/08 00:58:03;;;;;;;10.38;1.10;;;3.40;83.70;;;;;;5063163;28;20047;-71
2022/04/08 01:00:35;;;;;;;10.82;1.08;;;3.40;83.30;;;;;;5040154;28;20431;-71
2022/04/08 01:03:01;;;;;;;18.63;1.35;;;3.40;83.00;;;;;;5050793;28;20097;-71
2022/04/08 01:05:27;;;;;;;11.98;1.75;;;3.40;83.10;;;;;;5061086;28;20117;-71
2022/04/08 01:07:54;;;;;;;11.13;1.03;;;3.40;83.10;;;;;;5067478;28;20124;-71
2022/04/08 01:10:21;;;;;;;9.80;1.38;;;3.40;82.90;;;;;;5030678;28;20174;-71
2022/04/08 01:12:49;;;;;;;12.88;1.08;;;3.40;82.10;;;;;;5062029;28;20044;-71
2022/04/08 01:15:20;;;;;;;14.70;1.63;;;3.40;82.70;;;;;;5050026;28;20052;-71
2022/04/08 01:17:47;;;;;;;9.07;1.48;;;3.30;83.00;;;;;;5057217;28;20413;-71
2022/04/08 01:20:13;;;;;;;9.82;1.17;;;3.20;83.10;;;;;;5036998;28;20373;-71
2022/04/08 01:22:39;;;;;;;13.88;1.60;;;3.10;83.40;;;;;;5035894;28;20493;-71
2022/04/08 01:25:07;;;;;;;13.45;1.65;;;3.00;83.70;;;;;;5033210;28;20606;-71
2022/04/08 01:27:35;;;;;;;11.23;2.00;;;2.90;84.00;;;;;;5045208;28;20064;-71
2022/04/08 01:30:01;;;;;;;16.98;2.13;;;2.90;84.10;;;;;;5033523;28;20532;-71
2022/04/08 01:32:27;;;;;;;13.93;2.50;;;2.80;84.30;;;;;;5039372;28;20099;-72
2022/04/08 01:34:53;;;;;;;17.93;1.70;;;2.80;84.60;;;;;;5035088;28;20076;-71
2022/04/08 01:37:20;;;;;;;17.03;2.20;;;2.80;84.90;;;;;;5056380;28;20040;-71
2022/04/08 01:39:46;;;;;;;16.45;2.15;;;2.90;85.00;;;;;;5030480;28;20450;-71
2022/04/08 01:42:12;;;;;;;17.55;1.65;;;2.90;85.20;;;;;;5066389;28;20078;-71
2022/04/08 01:44:38;;;;;;;16.43;1.80;;;2.90;85.20;;;;;;5035670;28;20077;-71
2022/04/08 01:47:04;;;;;;;20.05;2.40;;;2.90;85.30;;;;;;5029011;28;20033;-71
2022/04/08 01:49:30;;;;;;;18.00;1.90;;;2.90;85.40;;;;;;5040076;28;20483;-71
2022/04/08 01:51:56;;;;;;;25.83;2.40;;;2.90;85.50;;;;;;5057055;28;20040;-71
2022/04/08 01:54:22;;;;;;;23.58;2.75;;;2.90;85.40;;;;;;5033772;28;20056;-71
2022/04/08 01:56:48;;;;;;;15.43;1.70;;;3.00;85.60;;;;;;5020037;28;20041;-71
2022/04/08 01:59:14;;;;;;;12.37;2.20;;;3.00;85.50;;;;;;5055763;28;20071;-71
2022/04/08 02:01:40;;;;;;;14.55;1.95;;;3.10;85.60;;;;;;5056325;28;20318;-71
2022/04/08 02:04:05;;;;;;;17.77;1.93;;;3.20;85.60;;;;;;5029347;28;20574;-71
2022/04/08 02:06:32;;;;;;;11.27;1.17;;;3.30;85.10;;;;;;5054614;28;20049;-71
2022/04/08 02:08:58;;;;;;;10.93;1.30;;;3.40;83.60;;;;;;5047937;28;20126;-71
2022/04/08 02:11:24;;;;;;;7.87;1.00;;;3.50;82.80;;;;;;5024873;28;20045;-71
2022/04/08 02:13:50;;;;;;;6.72;0.82;;;3.50;81.90;;;;;;5050584;28;20045;-72
2022/04/08 02:16:16;;;;;;;7.93;1.10;;;3.40;81.00;;;;;;5060804;28;20049;-71
2022/04/08 02:18:42;;;;;;;11.25;1.20;;;3.40;80.60;;;;;;5040353;28;20060;-71
2022/04/08 02:21:09;;;;;;;8.00;1.23;;;3.40;80.10;;;;;;5040841;28;20048;-71
2022/04/08 02:23:36;;;;;;;12.55;1.40;;;3.40;80.70;;;;;;5048719;28;20052;-71
2022/04/08 02:26:05;;;;;;;15.57;1.75;;;3.40;79.80;;;;;;5036175;28;20032;-71
2022/04/08 02:28:33;;;;;;;19.73;2.15;;;3.50;79.60;;;;;;5038879;28;20051;-71
2022/04/08 02:30:58;;;;;;;14.07;1.60;;;3.60;79.90;;;;;;5049799;28;20117;-71
2022/04/08 02:33:24;;;;;;;9.90;1.50;;;3.60;79.10;;;;;;5063820;28;20052;-71
2022/04/08 02:35:50;;;;;;;13.10;1.50;;;3.70;79.60;;;;;;5051943;28;20037;-71
2022/04/08 02:38:16;;;;;;;11.50;1.33;;;3.70;78.90;;;;;;5059718;28;20044;-71
2022/04/08 02:40:41;;;;;;;10.87;1.80;;;3.70;78.40;;;;;;5049759;28;20032;-71
2022/04/08 02:43:07;;;;;;;10.83;1.93;;;3.70;78.20;;;;;;5045851;28;20036;-71
2022/04/08 02:45:33;;;;;;;15.40;1.77;;;3.60;78.70;;;;;;5041067;28;20068;-71
2022/04/08 02:47:58;;;;;;;10.60;1.60;;;3.60;79.00;;;;;;5056191;28;20086;-71
2022/04/08 02:50:24;;;;;;;9.37;1.40;;;3.60;78.90;;;;;;5037420;28;20044;-71
2022/04/08 02:52:50;;;;;;;11.77;1.77;;;3.60;78.10;;;;;;5026688;28;20493;-71
2022/04/08 02:55:15;;;;;;;10.37;1.77;;;3.60;78.30;;;;;;5059652;28;20480;-71
2022/04/08 02:57:46;;;;;;;10.80;1.27;;;3.60;77.90;;;;;;5055242;28;20090;-70
2022/04/08 03:00:15;;;;;;;6.15;1.23;;;3.60;78.10;;;;;;5059441;28;20056;-70
2022/04/08 03:02:45;;;;;;;6.38;1.27;;;3.60;77.40;;;;;;5030374;28;20048;-71
2022/04/08 03:05:11;;;;;;;4.90;0.77;;;3.70;77.60;;;;;;5015980;28;20037;-71
2022/04/08 03:07:37;;;;;;;8.52;1.27;;;3.70;77.40;;;;;;5046585;28;20045;-71
2022/04/08 03:10:05;;;;;;;6.88;0.90;;;3.60;77.70;;;;;;5055248;28;20028;-71
2022/04/08 03:12:31;;;;;;;11.52;1.50;;;3.30;77.80;;;;;;5045213;28;20097;-70
2022/04/08 03:14:57;;;;;;;5.60;0.90;;;3.10;79.00;;;;;;5057745;28;20375;-70
2022/04/08 03:17:23;;;;;;;4.93;0.88;;;3.00;79.40;;;;;;5058241;28;20128;-70
2022/04/08 03:19:49;;;;;;;2.73;0.40;;;2.90;79.70;;;;;;5044027;28;20519;-70
2022/04/08 03:22:19;;;;;;;5.83;0.57;;;2.80;78.50;;;;;;5030205;28;20112;-70
2022/04/08 03:24:45;;;;;;;2.38;0.70;;;2.80;79.50;;;;;;5049050;28;20049;-70
2022/04/08 03:27:11;;;;;;;7.18;1.00;;;2.80;80.10;;;;;;5047420;28;20060;-70
2022/04/08 03:29:38;;;;;;;5.07;1.47;;;2.80;81.00;;;;;;5032906;28;20563;-71
2022/04/08 03:32:05;;;;;;;4.95;0.80;;;2.80;81.60;;;;;;5029436;28;20292;-71
2022/04/08 03:34:31;;;;;;;5.35;0.98;;;2.70;82.20;;;;;;5053723;28;20441;-72
2022/04/08 03:36:57;;;;;;;8.60;0.80;;;2.70;82.60;;;;;;5026364;28;20090;-72
2022/04/08 03:39:23;;;;;;;5.73;1.00;;;2.60;82.70;;;;;;5058705;28;20455;-72
2022/04/08 03:41:49;;;;;;;8.43;0.77;;;2.50;83.10;;;;;;5041733;28;20045;-72
2022/04/08 03:44:14;;;;;;;5.27;0.87;;;2.40;83.20;;;;;;5047601;28;20032;-72
2022/04/08 03:46:41;;;;;;;5.03;0.70;;;2.30;83.10;;;;;;5028348;28;20365;-72
2022/04/08 03:49:14;;;;;;;8.85;0.77;;;2.20;83.20;;;;;;5044313;28;20041;-72
2022/04/08 03:51:41;;;;;;;6.18;1.02;;;2.10;83.30;;;;;;5042563;28;20116;-72
2022/04/08 03:54:07;;;;;;;4.57;0.77;;;2.00;83.30;;;;;;5022091;28;20045;-72
2022/04/08 03:56:34;;;;;;;5.72;0.85;;;1.90;83.40;;;;;;5063322;28;20040;-71
2022/04/08 03:58:59;;;;;;;12.98;1.63;;;1.90;83.50;;;;;;5027012;28;20099;-71
2022/04/08 04:01:25;;;;;;;6.23;1.20;;;1.70;83.50;;;;;;5061892;28;20044;-71
2022/04/08 04:03:51;;;;;;;4.57;0.93;;;1.60;83.60;;;;;;5040634;28;20032;-71
2022/04/08 04:06:17;;;;;;;5.03;0.80;;;1.50;83.80;;;;;;5024683;28;20501;-71
2022/04/08 04:08:42;;;;;;;6.17;1.10;;;1.40;83.90;;;;;;5027105;28;20044;-71
2022/04/08 04:11:08;;;;;;;4.50;0.73;;;1.30;84.00;;;;;;5056035;28;20692;-71
2022/04/08 04:13:34;;;;;;;3.60;0.80;;;1.30;84.30;;;;;;5039536;28;20048;-71
2022/04/08 04:15:59;;;;;;;3.80;0.70;;;1.30;84.40;;;;;;5032854;28;20523;-71
2022/04/08 04:18:26;;;;;;;7.47;1.40;;;1.40;85.00;;;;;;5050195;28;20040;-72
2022/04/08 04:20:52;;;;;;;4.93;1.20;;;1.60;85.30;;;;;;5016312;28;20044;-72
2022/04/08 04:23:18;;;;;;;6.93;1.10;;;2.00;86.00;;;;;;5063944;28;20051;-72
2022/04/08 04:25:44;;;;;;;10.67;1.83;;;2.30;85.90;;;;;;5053517;28;20045;-72
2022/04/08 04:28:09;;;;;;;8.43;1.60;;;2.50;85.50;;;;;;5040580;28;20032;-72
2022/04/08 04:30:35;;;;;;;7.87;1.70;;;2.60;84.90;;;;;;5036835;28;20047;-72
2022/04/08 04:33:01;;;;;;;6.83;1.27;;;2.60;84.30;;;;;;5056321;28;20045;-72
2022/04/08 04:35:27;;;;;;;4.80;1.30;;;2.60;84.30;;;;;;5031485;28;20068;-72
2022/04/08 04:37:53;;;;;;;7.93;1.10;;;2.60;83.80;;;;;;5021654;28;20079;-71
2022/04/08 04:40:20;;;;;;;2.90;1.00;;;2.60;83.10;;;;;;5023698;28;20280;-72
2022/04/08 04:42:45;;;;;;;4.75;1.00;;;2.70;82.60;;;;;;5025273;28;20093;-72
2022/04/08 04:45:13;;;;;;;5.00;1.20;;;2.70;82.30;;;;;;5028707;28;20068;-72
2022/04/08 04:47:39;;;;;;;5.32;0.93;;;2.70;82.40;;;;;;5030565;28;20040;-71
2022/04/08 04:50:05;;;;;;;4.70;1.00;;;2.60;82.80;;;;;;5063676;28;20033;-71
2022/04/08 04:52:31;;;;;;;4.55;1.20;;;2.60;83.00;;;;;;5031095;28;20060;-71
2022/04/08 04:54:56;;;;;;;4.73;1.00;;;2.50;83.20;;;;;;5041308;28;20075;-71
2022/04/08 04:57:23;;;;;;;7.47;1.77;;;2.40;83.40;;;;;;5042238;28;20056;-71
2022/04/08 04:59:48;;;;;;;5.20;1.30;;;2.40;83.20;;;;;;5047892;28;20077;-71
2022/04/08 05:02:14;;;;;;;5.90;1.13;;;2.30;83.30;;;;;;5030693;28;20060;-71
2022/04/08 05:04:40;;;;;;;7.20;1.30;;;2.30;82.90;;;;;;5056144;28;20072;-72
2022/04/08 05:07:05;;;;;;;10.00;1.83;;;2.20;83.10;;;;;;5028869;28;20087;-72
2022/04/08 05:09:32;;;;;;;6.17;1.20;;;2.20;83.40;;;;;;5030636;28;20036;-72
2022/04/08 05:11:57;;;;;;;6.57;1.63;;;2.10;83.70;;;;;;5023036;28;20869;-72
2022/04/08 05:14:24;;;;;;;8.33;1.87;;;2.10;84.20;;;;;;5026034;28;20041;-72
2022/04/08 05:16:51;;;;;;;10.32;1.27;;;2.20;84.90;;;;;;5047420;28;20127;-72
2022/04/08 05:19:16;;;;;;;6.85;1.50;;;2.20;85.10;;;;;;5046473;28;20036;-72
2022/04/08 05:21:42;;;;;;;10.60;2.00;;;2.30;85.50;;;;;;5038754;28;20409;-72
2022/04/08 05:24:08;;;;;;;7.32;1.20;;;2.50;85.30;;;;;;5065777;28;20135;-72
2022/04/08 05:26:34;;;;;;;8.30;1.23;;;2.50;85.10;;;;;;5036305;28;20040;-72
2022/04/08 05:29:00;;;;;;;8.90;1.10;;;2.60;84.60;;;;;;5061278;28;20044;-72
2022/04/08 05:31:26;;;;;;;7.37;1.50;;;2.60;84.30;;;;;;5068130;28;20047;-72
2022/04/08 05:33:52;;;;;;;7.35;1.20;;;2.70;84.10;;;;;;5050490;28;20036;-72
2022/04/08 05:36:18;;;;;;;4.90;1.37;;;2.80;83.80;;;;;;5054727;28;20044;-72
2022/04/08 05:38:44;;;;;;;6.47;1.10;;;2.80;83.90;;;;;;5027997;28;20120;-72
2022/04/08 05:41:09;;;;;;;2.90;1.60;;;2.90;83.70;;;;;;5051457;28;20148;-72
2022/04/08 05:43:35;;;;;;;5.90;1.07;;;2.90;83.60;;;;;;5025190;28;20087;-72
2022/04/08 05:46:00;;;;;;;6.93;1.30;;;3.00;83.70;;;;;;5019649;28;20037;-72
2022/04/08 05:48:26;;;;;;;5.73;1.30;;;3.10;83.40;;;;;;5037984;28;20558;-72
2022/04/08 05:50:52;;;;;;;8.43;1.70;;;3.10;83.30;;;;;;5026455;28;20045;-71
2022/04/08 05:53:18;;;;;;;6.53;1.40;;;3.20;83.40;;;;;;5050025;28;20060;-71
2022/04/08 05:55:45;;;;;;;7.32;1.50;;;3.30;83.60;;;;;;5048525;28;20044;-71
2022/04/08 05:58:11;;;;;;;10.52;1.73;;;3.30;83.70;;;;;;5060502;28;20707;-71
2022/04/08 06:00:37;;;;;;;7.17;1.83;;;3.40;83.80;;;;;;5056430;28;20139;-71
2022/04/08 06:03:03;;;;;;;7.03;1.57;;;3.40;83.80;;;;;;5024601;28;20489;-71
2022/04/08 06:05:28;;;;;;;9.17;1.57;;;3.40;83.90;;;;;;5028664;28;20131;-72
2022/04/08 06:07:55;;;;;;;8.47;1.83;;;3.40;83.90;;;;;;5061418;28;20090;-72
2022/04/08 06:10:23;;;;;;;9.75;1.70;;;3.40;84.00;;;;;;5044859;28;20124;-72
2022/04/08 06:12:53;;;;;;;9.38;1.50;;;3.40;84.00;;;;;;5060617;28;20040;-72
2022/04/08 06:15:20;;;;;;;10.40;1.70;;;3.40;83.80;;;;;;5039175;28;20041;-72
2022/04/08 06:17:46;;;;;;;8.82;1.73;;;3.40;84.00;;;;;;5045299;28;20040;-72
2022/04/08 06:20:15;;;;;;;11.13;2.08;;;3.50;84.00;;;;;;5051439;28;20108;-72
2022/04/08 06:22:41;;;;;;;8.38;1.42;;;3.50;84.10;;;;;;5066598;28;20119;-72
2022/04/08 06:25:12;;;;;;;7.18;1.92;;;3.60;84.20;;;;;;5060622;28;20139;-72
2022/04/08 06:27:38;;;;;;;8.50;1.45;;;3.60;84.20;;;;;;5050792;28;20049;-72
2022/04/08 06:30:09;;;;;;;12.32;1.77;;;3.70;84.30;;;;;;5029952;28;20516;-72
2022/04/08 06:32:36;;;;;;;5.93;1.23;;;3.80;84.20;;;;;;5045247;28;20170;-72
2022/04/08 06:35:02;;;;;;;10.43;1.85;;;3.80;84.30;;;;;;5035120;28;20041;-72
2022/04/08 06:37:28;;;;;;;10.40;1.30;;;3.90;83.80;;;;;;5047623;28;20045;-72
2022/04/08 06:39:55;;;;;;;10.27;1.27;;;3.90;83.90;;;;;;5039487;28;20043;-72
2022/04/08 06:42:24;;;;;;;7.95;1.40;;;3.90;83.80;;;;;;5053104;28;20700;-72
2022/04/08 06:44:50;;;;;;;15.52;1.98;;;3.90;83.90;;;;;;5048185;28;20433;-72
2022/04/08 06:47:15;;;;;;;10.17;1.73;;;3.90;84.10;;;;;;5029305;28;20055;-72
2022/04/08 06:49:44;;;;;;;15.57;2.10;;;4.00;84.30;;;;;;5012581;28;20454;-72
2022/04/08 06:52:11;;;;;;;12.80;2.40;;;4.10;84.40;;;;;;5024110;28;20863;-72
2022/04/08 06:54:37;;;;;;;11.75;2.53;;;4.30;84.70;;;;;;5044541;28;20150;-72
2022/04/08 06:57:03;;;;;;;12.33;2.07;;;4.50;85.00;;;;;;5055566;28;20111;-72
2022/04/08 06:59:28;;;;;;;12.47;1.90;;;4.70;85.00;;;;;;5025118;28;20053;-72
2022/04/08 07:01:54;;;;;;;8.50;1.13;;;4.70;84.50;;;;;;5051492;28;20076;-73
2022/04/08 07:04:20;;;;;;;9.13;1.20;;;4.60;83.70;;;;;;5027871;28;20120;-73
2022/04/08 07:06:45;;;;;;;5.13;1.40;;;4.50;83.70;;;;;;5038083;28;20043;-72
2022/04/08 07:09:11;;;;;;;4.00;0.90;;;4.40;83.60;;;;;;5041330;28;20499;-72
2022/04/08 07:11:37;;;;;;;5.40;0.70;;;4.20;83.20;;;;;;5058453;28;20049;-72
2022/04/08 07:14:04;;;;;;;2.67;0.70;;;4.20;83.40;;;;;;5060324;28;20044;-72
2022/04/08 07:16:30;;;;;;;5.85;0.88;;;4.20;83.80;;;;;;5052195;28;20459;-72
2022/04/08 07:18:55;;;;;;;4.17;0.60;;;4.20;84.10;;;;;;5052689;28;20286;-72
2022/04/08 07:21:22;;;;;;;4.43;0.83;;;4.30;84.00;;;;;;5037216;28;20043;-72
2022/04/08 07:23:48;;;;;;;3.95;0.50;;;4.50;83.90;;;;;;5026789;28;20160;-72
2022/04/08 07:26:14;;;;;;;3.88;0.50;;;4.60;83.60;;;;;;5053584;28;20044;-72
2022/04/08 07:28:40;;;;;;;7.07;0.60;;;4.80;82.60;;;;;;5038672;28;20357;-72
2022/04/08 07:31:05;;;;;;;5.87;0.60;;;5.00;81.20;;;;;;5043571;28;20291;-72
2022/04/08 07:33:31;;;;;;;5.27;0.50;;;5.10;80.30;;;;;;5033699;28;20049;-72
2022/04/08 07:35:58;;;;;;;6.20;0.77;;;5.20;79.30;;;;;;5025489;28;20033;-72
2022/04/08 07:38:25;;;;;;;6.65;0.77;;;5.30;80.00;;;;;;5061319;28;20520;-72
2022/04/08 07:40:50;;;;;;;6.93;0.50;;;5.40;79.50;;;;;;5058489;28;20788;-72
2022/04/08 07:43:17;;;;;;;4.23;0.60;;;5.50;79.80;;;;;;5034290;28;20094;-72
2022/04/08 07:45:43;;;;;;;4.63;0.60;;;5.60;78.70;;;;;;5029553;28;20036;-73
2022/04/08 07:48:09;;;;;;;7.97;1.10;;;5.70;77.60;;;;;;5055530;28;20546;-72
2022/04/08 07:50:37;;;;;;;6.47;0.90;;;5.70;76.30;;;;;;5055530;28;20119;-72
2022/04/08 07:53:04;;;;;;;6.72;1.38;;;5.80;77.30;;;;;;5040542;28;20078;-72
2022/04/08 07:55:29;;;;;;;3.92;0.55;;;5.90;77.30;;;;;;5050793;28;20414;-73
2022/04/08 07:57:55;;;;;;;8.37;1.10;;;5.90;77.70;;;;;;5046340;28;20037;-73
2022/04/08 08:00:28;;;;;;;5.90;0.73;;;6.00;78.10;;;;;;5047708;28;20390;-73
2022/04/08 08:02:55;;;;;;;5.82;0.93;;;6.10;78.10;;;;;;5029185;28;20071;-73
2022/04/08 08:05:21;;;;;;;5.18;0.88;;;6.20;76.00;;;;;;5037792;28;20098;-73
2022/04/08 08:07:57;;;;;;;9.40;1.20;;;6.30;75.50;;;;;;5040401;28;20040;-73
2022/04/08 08:10:25;;;;;;;6.78;0.80;;;6.40;75.10;;;;;;5034654;28;20047;-72
2022/04/08 08:12:51;;;;;;;9.23;1.05;;;6.50;75.60;;;;;;5045976;28;20052;-72
2022/04/08 08:15:18;;;;;;;4.38;1.08;;;6.50;74.70;;;;;;5049586;28;20053;-72
2022/04/08 08:17:45;;;;;;;4.35;0.68;;;6.30;75.30;;;;;;5036200;28;20036;-73
2022/04/08 08:20:12;;;;;;;11.75;2.42;;;6.30;75.30;;;;;;5035525;28;20394;-73
2022/04/08 08:22:38;;;;;;;10.77;1.25;;;6.50;76.30;;;;;;5049582;28;20076;-73
2022/04/08 08:25:06;;;;;;;7.10;1.67;;;6.80;77.10;;;;;;5050345;28;20891;-73
2022/04/08 08:27:38;;;;;;;7.97;1.23;;;7.10;76.40;;;;;;5054602;28;20098;-73
2022/04/08 08:30:05;;;;;;;7.57;1.30;;;7.30;76.60;;;;;;5057882;28;20501;-73
2022/04/08 08:32:31;;;;;;;6.20;1.30;;;7.40;76.60;;;;;;5032951;28;20047;-73
2022/04/08 08:34:57;;;;;;;9.83;1.43;;;7.30;75.50;;;;;;5043027;28;20568;-73
2022/04/08 08:37:22;;;;;;;9.40;1.43;;;7.40;75.40;;;;;;5033959;28;20405;-72
2022/04/08 08:39:48;;;;;;;7.97;1.10;;;7.50;75.70;;;;;;5027532;28;20048;-72
2022/04/08 08:42:14;;;;;;;6.37;1.00;;;7.60;74.00;;;;;;5006247;28;20714;-72
2022/04/08 08:44:40;;;;;;;6.67;1.20;;;7.60;73.70;;;;;;5044063;28;20135;-72
2022/04/08 08:47:11;;;;;;;9.37;1.40;;;7.60;74.30;;;;;;5024126;28;20493;-72
2022/04/08 08:49:41;;;;;;;7.88;1.27;;;7.60;74.80;;;;;;5045189;28;20048;-72
2022/04/08 08:52:09;;;;;;;8.82;1.45;;;7.80;74.90;;;;;;5055371;28;20044;-72
2022/04/08 08:54:35;;;;;;;8.07;1.50;;;7.90;74.00;;;;;;5042754;28;20040;-72
2022/04/08 08:57:02;;;;;;;8.57;1.20;;;8.10;75.10;;;;;;5023175;28;20040;-72
2022/04/08 08:59:29;;;;;;;6.93;1.83;;;8.10;74.30;;;;;;5025007;28;20560;-72
2022/04/08 09:02:02;;;;;;;11.07;1.52;;;8.10;71.80;;;;;;5024406;28;20408;-72
2022/04/08 09:04:28;;;;;;;8.15;1.20;;;8.10;74.00;;;;;;5034234;28;20369;-72
2022/04/08 09:06:53;;;;;;;4.93;0.90;;;8.00;73.90;;;;;;5033823;28;20052;-72
2022/04/08 09:09:32;;;;;;;8.33;1.30;;;7.90;72.80;;;;;;5036347;28;20049;-72
2022/04/08 09:12:12;;;;;;;9.18;1.33;;;7.90;73.30;;;;;;5030961;28;20707;-72
2022/04/08 09:14:38;;;;;;;7.90;1.42;;;8.00;73.90;;;;;;5029229;28;20044;-72
2022/04/08 09:17:03;;;;;;;9.95;1.67;;;8.10;73.80;;;;;;5031341;28;20578;-72
2022/04/08 09:19:33;;;;;;;7.50;1.10;;;8.20;72.40;;;;;;5034319;28;20037;-72
2022/04/08 09:21:59;;;;;;;6.00;1.20;;;8.30;74.00;;;;;;5019084;28;20370;-72
2022/04/08 09:24:27;;;;;;;5.38;1.00;;;8.30;72.60;;;;;;5040343;28;20486;-72
2022/04/08 09:26:56;;;;;;;7.30;0.90;;;8.10;69.30;;;;;;5030911;28;20103;-72
2022/04/08 09:29:25;;;;;;;7.45;1.00;;;7.80;69.80;;;;;;5017901;28;20060;-72
2022/04/08 09:31:51;;;;;;;7.90;1.10;;;7.60;71.20;;;;;;5023750;28;20055;-72
2022/04/08 09:34:20;;;;;;;8.75;1.50;;;7.80;71.50;;;;;;5035828;28;20045;-72
2022/04/08 09:36:46;;;;;;;6.93;0.80;;;8.00;70.00;;;;;;5026227;28;20127;-72
2022/04/08 09:39:13;;;;;;;7.13;0.87;;;8.00;70.80;;;;;;5038393;28;20116;-72
2022/04/08 09:41:40;;;;;;;8.07;1.48;;;8.20;70.60;;;;;;5033888;28;20478;-72
2022/04/08 09:44:07;;;;;;;8.70;1.23;;;8.30;70.00;;;;;;5040357;28;20573;-72
2022/04/08 09:46:33;;;;;;;7.68;1.15;;;8.20;69.50;;;;;;5033030;28;20085;-72
2022/04/08 09:48:59;;;;;;;8.17;1.63;;;7.90;68.90;;;;;;5008662;28;20440;-72
2022/04/08 09:51:27;;;;;;;7.60;1.10;;;7.70;70.00;;;;;;5033800;28;20045;-72
2022/04/08 09:54:05;;;;;;;6.05;0.95;;;7.60;71.40;;;;;;5037358;28;20045;-72
2022/04/08 09:56:33;;;;;;;6.28;0.80;;;7.70;71.30;;;;;;5032200;28;20081;-72
2022/04/08 09:59:06;;;;;;;9.32;0.90;;;7.80;72.40;;;;;;5021125;28;20531;-72
2022/04/08 10:01:35;;;;;;;3.25;0.60;;;8.00;72.40;;;;;;5062890;28;20488;-72
2022/04/08 10:04:04;;;;;;;6.30;0.80;;;8.00;67.60;;;;;;5047273;28;20456;-72
2022/04/08 10:06:30;;;;;;;4.45;1.02;;;8.10;69.10;;;;;;5036824;28;20044;-72
2022/04/08 10:08:57;;;;;;;6.43;1.00;;;8.30;70.50;;;;;;5053264;28;20040;-72
2022/04/08 10:11:37;;;;;;;4.57;0.70;;;8.80;71.60;;;;;;5055770;28;20118;-72
2022/04/08 10:14:22;;;;;;;4.00;0.70;;;9.20;69.70;;;;;;5066575;28;20040;-72
2022/04/08 10:16:52;;;;;;;2.92;0.60;;;9.40;66.50;;;;;;5041273;28;20098;-72
2022/04/08 10:19:18;;;;;;;4.57;1.13;;;9.50;68.10;;;;;;5055522;28;20041;-72
2022/04/08 10:21:53;;;;;;;5.38;0.68;;;9.20;65.30;;;;;;5052301;28;20032;-72
2022/04/08 10:24:23;;;;;;;7.28;1.10;;;8.70;68.20;;;;;;5040965;28;20044;-72
2022/04/08 10:27:04;;;;;;;5.50;0.75;;;8.30;69.20;;;;;;5035744;28;20459;-72
2022/04/08 10:29:34;;;;;;;5.32;0.65;;;7.80;69.10;;;;;;5043991;28;20054;-72
2022/04/08 10:32:11;;;;;;;5.82;0.75;;;7.60;68.50;;;;;;5039640;28;20085;-72
2022/04/08 10:34:37;;;;;;;3.72;0.40;;;7.50;70.00;;;;;;5063564;28;20552;-72
2022/04/08 10:37:20;;;;;;;3.67;0.60;;;7.50;69.30;;;;;;5055943;28;20070;-72
2022/04/08 10:39:56;;;;;;;5.60;0.88;;;7.50;71.00;;;;;;5058697;28;20036;-72
2022/04/08 10:42:23;;;;;;;4.88;0.93;;;7.50;70.80;;;;;;5050389;28;20253;-72
2022/04/08 10:44:49;;;;;;;6.82;0.70;;;7.50;71.20;;;;;;5052173;28;20848;-72
2022/04/08 10:47:21;;;;;;;4.65;0.70;;;7.50;70.30;;;;;;5054190;28;20492;-72
2022/04/08 10:49:51;;;;;;;4.30;0.60;;;7.50;69.90;;;;;;5063659;28;20438;-72
2022/04/08 10:52:21;;;;;;;6.28;0.60;;;7.60;68.70;;;;;;5032272;28;20040;-72
2022/04/08 10:54:48;;;;;;;6.28;1.00;;;7.80;68.60;;;;;;5047866;28;20040;-72
2022/04/08 10:57:14;;;;;;;5.03;0.70;;;8.00;67.50;;;;;;5057723;28;20036;-72
2022/04/08 10:59:40;;;;;;;6.77;1.23;;;8.10;67.40;;;;;;5055712;28;20049;-72
2022/04/08 11:02:12;;;;;;;5.40;0.70;;;8.20;66.10;;;;;;5038233;28;20045;-72
2022/04/08 11:04:38;;;;;;;6.50;0.80;;;8.50;67.80;;;;;;5059245;28;20127;-72
2022/04/08 11:07:05;;;;;;;4.13;0.97;;;8.80;66.40;;;;;;5030401;28;20175;-72
2022/04/08 11:09:32;;;;;;;7.47;1.00;;;9.10;66.90;;;;;;5046777;28;20051;-72
2022/04/08 11:11:58;;;;;;;7.25;0.90;;;9.30;64.60;;;;;;5024244;28;20409;-72
2022/04/08 11:14:26;;;;;;;5.47;0.98;;;9.40;64.10;;;;;;5057425;28;20102;-72
2022/04/08 11:16:52;;;;;;;10.43;1.63;;;9.70;65.70;;;;;;5057899;28;20051;-72
2022/04/08 11:19:21;;;;;;;10.23;1.00;;;10.00;65.90;;;;;;5059860;28;20524;-72
2022/04/08 11:21:48;;;;;;;5.65;0.70;;;10.20;65.60;;;;;;5059508;28;20048;-72
2022/04/08 11:24:16;;;;;;;5.07;0.65;;;10.20;60.40;;;;;;5058356;28;20047;-72
2022/04/08 11:26:44;;;;;;;5.25;0.65;;;10.10;62.50;;;;;;5030158;28;20047;-72
2022/04/08 11:29:14;;;;;;;6.18;0.90;;;10.00;61.50;;;;;;5051478;28;20044;-72
2022/04/08 11:31:39;;;;;;;5.20;0.60;;;9.90;61.50;;;;;;5058745;28;20044;-72
2022/04/08 11:34:06;;;;;;;6.90;0.60;;;9.70;60.50;;;;;;5029263;28;20059;-72
2022/04/08 11:36:32;;;;;;;3.67;0.73;;;9.60;61.90;;;;;;5028781;28;20044;-72
2022/04/08 11:38:58;;;;;;;6.40;0.65;;;9.60;62.60;;;;;;5038364;28;20040;-71
2022/04/08 11:41:25;;;;;;;4.10;0.60;;;9.60;62.80;;;;;;5023033;28;20095;-71
2022/04/08 11:43:52;;;;;;;3.88;0.50;;;9.80;63.60;;;;;;5055121;28;20076;-71
2022/04/08 11:46:18;;;;;;;4.05;0.63;;;9.80;63.40;;;;;;5048877;28;20040;-71
2022/04/08 11:48:44;;;;;;;3.38;0.60;;;9.70;62.50;;;;;;5052676;28;20041;-71
2022/04/08 11:51:10;;;;;;;6.72;1.30;;;9.50;60.80;;;;;;5040007;28;20865;-72
2022/04/08 11:53:47;;;;;;;5.90;0.80;;;9.30;61.70;;;;;;5028500;28;20140;-73
2022/04/08 11:56:21;;;;;;;4.05;0.70;;;9.20;63.20;;;;;;5053378;28;20048;-71
2022/04/08 11:59:01;;;;;;;9.15;0.90;;;9.10;62.50;;;;;;5053719;28;20448;-71
2022/04/08 12:01:39;;;;;;;3.80;0.68;;;9.20;63.80;;;;;;5052539;28;20052;-71
2022/04/08 12:04:10;;;;;;;6.30;0.85;;;9.30;61.30;;;;;;5052722;28;20041;-71
2022/04/08 12:06:43;;;;;;;5.88;1.40;;;9.70;62.60;;;;;;5062482;28;20225;-71
2022/04/08 12:09:10;;;;;;;4.35;0.80;;;10.00;62.50;;;;;;5038079;28;20124;-71
2022/04/08 12:11:42;;;;;;;7.45;1.10;;;10.20;61.50;;;;;;5059611;28;20166;-71
2022/04/08 12:14:09;;;;;;;7.30;1.00;;;10.20;61.90;;;;;;5055402;28;20527;-71
2022/04/08 12:16:39;;;;;;;6.20;0.55;;;10.30;60.40;;;;;;5019296;28;20517;-72
2022/04/08 12:19:06;;;;;;;4.55;0.65;;;10.10;59.30;;;;;;5028592;28;20029;-72
2022/04/08 12:21:33;;;;;;;6.47;0.70;;;9.90;59.50;;;;;;5037731;28;20048;-72
2022/04/08 12:24:09;;;;;;;4.25;0.68;;;9.90;59.90;;;;;;5057384;28;20097;-72
2022/04/08 12:26:36;;;;;;;4.30;0.50;;;9.90;60.20;;;;;;5047952;28;20436;-72
2022/04/08 12:29:10;;;;;;;5.18;0.52;;;9.70;59.80;;;;;;5054235;28;20037;-70
2022/04/08 12:31:50;;;;;;;3.50;0.52;;;9.70;60.40;;;;;;5031204;28;20167;-70
2022/04/08 12:34:17;;;;;;;4.25;0.57;;;9.60;59.00;;;;;;5043819;28;20050;-70
2022/04/08 12:36:44;;;;;;;3.38;0.80;;;9.30;58.30;;;;;;5033580;28;20044;-70
2022/04/08 12:39:11;;;;;;;6.40;0.80;;;9.30;61.00;;;;;;5068590;28;20551;-70
2022/04/08 12:41:44;;;;;;;5.05;0.68;;;9.40;61.50;;;;;;5034595;28;20533;-71
2022/04/08 12:44:10;;;;;;;6.22;0.73;;;9.50;57.80;;;;;;5057364;28;20095;-71
2022/04/08 12:46:37;;;;;;;5.25;0.73;;;9.40;59.00;;;;;;5056394;28;20384;-71
2022/04/08 12:49:06;;;;;;;9.88;0.80;;;9.30;58.40;;;;;;5034973;28;20091;-71
2022/04/08 12:51:33;;;;;;;5.95;1.05;;;9.30;59.70;;;;;;5065500;28;20094;-71
2022/04/08 12:53:59;;;;;;;4.40;1.20;;;9.50;61.50;;;;;;5057230;28;20048;-72
2022/04/08 12:56:26;;;;;;;7.73;2.43;;;9.90;62.50;;;;;;5057004;28;20036;-72